createdAt,value
2022-08-28T00:01:25.215Z,15.62
2022-08-28T00:03:51.840Z,15.63
2022-08-28T00:06:18.526Z,15.65
2022-08-28T00:08:45.098Z,15.61
2022-08-28T00:11:11.748Z,15.64
2022-08-28T00:13:38.441Z,15.63
2022-08-28T00:16:05.642Z,15.60
2022-08-28T00:18:34.240Z,15.60
2022-08-28T00:21:01.418Z,15.62
2022-08-28T00:23:40.293Z,15.60
2022-08-28T00:26:10.329Z,15.60
2022-08-28T00:28:37.126Z,15.61
2022-08-28T00:31:03.911Z,15.62
2022-08-28T00:33:34.479Z,15.59
2022-08-28T00:36:02.205Z,15.56
2022-08-28T00:38:29.663Z,15.57
2022-08-28T00:41:00.687Z,15.55
2022-08-28T00:43:36.911Z,15.55
2022-08-28T00:46:06.048Z,15.54
2022-08-28T00:48:34.021Z,15.51
2022-08-28T00:51:02.207Z,15.48
2022-08-28T00:53:32.798Z,15.46
2022-08-28T00:56:02.643Z,15.46
2022-08-28T00:58:31.237Z,15.45
2022-08-28T01:00:57.939Z,15.48
2022-08-28T01:03:25.114Z,15.45
2022-08-28T01:05:55.055Z,15.47
2022-08-28T01:08:21.756Z,15.46
2022-08-28T01:10:53.945Z,15.45
2022-08-28T01:13:20.921Z,15.45
2022-08-28T01:15:48.342Z,15.47
2022-08-28T01:18:16.131Z,15.46
2022-08-28T01:20:49.033Z,15.45
2022-08-28T01:23:25.200Z,15.49
2022-08-28T01:25:53.137Z,15.50
2022-08-28T01:28:20.048Z,15.51
2022-08-28T01:30:48.289Z,15.53
2022-08-28T01:33:15.026Z,15.52
2022-08-28T01:35:44.735Z,15.54
2022-08-28T01:38:11.720Z,15.53
2022-08-28T01:40:41.659Z,15.54
2022-08-28T01:43:12.535Z,15.54
2022-08-28T01:45:40.108Z,15.56
2022-08-28T01:48:07.402Z,15.57
2022-08-28T01:50:35.512Z,15.56
2022-08-28T01:53:02.746Z,15.54
2022-08-28T01:55:29.483Z,15.54
2022-08-28T01:57:56.299Z,15.54
2022-08-28T02:00:25.089Z,15.53
2022-08-28T02:02:51.652Z,15.52
2022-08-28T02:05:18.369Z,15.51
2022-08-28T02:07:44.944Z,15.53
2022-08-28T02:10:11.536Z,15.51
2022-08-28T02:12:38.235Z,15.51
2022-08-28T02:15:06.060Z,15.50
2022-08-28T02:17:34.046Z,15.46
2022-08-28T02:20:00.612Z,15.46
2022-08-28T02:22:27.401Z,15.47
2022-08-28T02:24:54.005Z,15.42
2022-08-28T02:27:20.716Z,15.40
2022-08-28T02:29:47.325Z,15.40
2022-08-28T02:32:13.956Z,15.44
2022-08-28T02:34:41.910Z,15.43
2022-08-28T02:37:08.469Z,15.44
2022-08-28T02:39:35.528Z,15.40
2022-08-28T02:42:02.208Z,15.39
2022-08-28T02:44:28.802Z,15.39
2022-08-28T02:46:55.487Z,15.39
2022-08-28T02:49:22.959Z,15.39
2022-08-28T02:51:51.032Z,15.36
2022-08-28T02:54:18.458Z,15.35
2022-08-28T02:56:45.188Z,15.34
2022-08-28T02:59:11.878Z,15.33
2022-08-28T03:01:38.628Z,15.32
2022-08-28T03:04:05.823Z,15.32
2022-08-28T03:06:33.032Z,15.35
2022-08-28T03:09:01.109Z,15.29
2022-08-28T03:11:28.189Z,15.30
2022-08-28T03:13:54.755Z,15.27
2022-08-28T03:16:21.338Z,15.26
2022-08-28T03:18:47.971Z,15.24
2022-08-28T03:21:14.610Z,15.26
2022-08-28T03:23:41.182Z,15.25
2022-08-28T03:26:11.528Z,15.26
2022-08-28T03:28:41.048Z,15.24
2022-08-28T03:31:08.543Z,15.21
2022-08-28T03:33:35.324Z,15.18
2022-08-28T03:36:04.607Z,15.15
2022-08-28T03:38:31.628Z,15.10
2022-08-28T03:40:58.216Z,15.09
2022-08-28T03:43:26.202Z,15.09
2022-08-28T03:45:56.367Z,15.07
2022-08-28T03:48:23.096Z,15.06
2022-08-28T03:50:50.271Z,15.02
2022-08-28T03:53:18.636Z,15.02
2022-08-28T03:55:45.226Z,15.00
2022-08-28T03:58:12.069Z,14.97
2022-08-28T04:00:47.318Z,14.93
2022-08-28T04:03:14.241Z,14.89
2022-08-28T04:05:41.891Z,14.85
2022-08-28T04:08:08.764Z,14.82
2022-08-28T04:10:35.656Z,14.79
2022-08-28T04:13:02.921Z,14.73
2022-08-28T04:15:29.761Z,14.70
2022-08-28T04:17:57.698Z,14.64
2022-08-28T04:20:24.386Z,14.57
2022-08-28T04:22:55.064Z,14.55
2022-08-28T04:25:22.473Z,14.52
2022-08-28T04:27:50.058Z,14.48
2022-08-28T04:30:17.462Z,14.42
2022-08-28T04:32:44.160Z,14.41
2022-08-28T04:35:13.345Z,14.33
2022-08-28T04:37:40.718Z,14.30
2022-08-28T04:40:09.082Z,14.25
2022-08-28T04:42:35.860Z,14.24
2022-08-28T04:45:02.701Z,14.25
2022-08-28T04:47:29.305Z,14.23
2022-08-28T04:49:55.931Z,14.24
2022-08-28T04:52:23.902Z,14.24
2022-08-28T04:54:50.444Z,14.24
2022-08-28T04:57:17.053Z,14.25
2022-08-28T04:59:43.720Z,14.23
2022-08-28T05:02:10.477Z,14.25
2022-08-28T05:04:37.244Z,14.29
2022-08-28T05:07:04.062Z,14.31
2022-08-28T05:09:32.114Z,14.31
2022-08-28T05:12:01.917Z,14.34
2022-08-28T05:14:28.549Z,14.33
2022-08-28T05:16:55.143Z,14.32
2022-08-28T05:19:22.036Z,14.30
2022-08-28T05:21:48.783Z,14.31
2022-08-28T05:24:15.553Z,14.30
2022-08-28T05:26:43.556Z,14.32
2022-08-28T05:29:10.642Z,14.26
2022-08-28T05:31:38.024Z,14.28
2022-08-28T05:34:05.149Z,14.33
2022-08-28T05:36:35.961Z,14.36
2022-08-28T05:39:07.011Z,14.34
2022-08-28T05:41:34.019Z,14.40
2022-08-28T05:44:05.561Z,14.40
2022-08-28T05:46:32.819Z,14.41
2022-08-28T05:48:59.419Z,14.42
2022-08-28T05:51:27.552Z,14.36
2022-08-28T05:53:54.880Z,14.38
2022-08-28T05:56:24.049Z,14.37
2022-08-28T05:58:51.075Z,14.33
2022-08-28T06:01:21.443Z,14.30
2022-08-28T06:03:53.063Z,14.33
2022-08-28T06:06:19.850Z,14.38
2022-08-28T06:08:56.339Z,14.46
2022-08-28T06:11:27.137Z,14.55
2022-08-28T06:13:58.782Z,14.64
2022-08-28T06:16:26.842Z,14.67
2022-08-28T06:18:53.624Z,14.73
2022-08-28T06:21:20.305Z,14.78
2022-08-28T06:23:46.883Z,14.75
2022-08-28T06:26:13.548Z,14.81
2022-08-28T06:28:40.143Z,14.84
2022-08-28T06:31:23.541Z,14.87
2022-08-28T06:33:52.315Z,14.88
2022-08-28T06:36:18.900Z,14.96
2022-08-28T06:38:45.462Z,14.90
2022-08-28T06:41:12.449Z,14.99
2022-08-28T06:43:39.190Z,15.02
2022-08-28T06:46:06.260Z,15.00
2022-08-28T06:48:33.132Z,15.12
2022-08-28T06:51:01.152Z,15.23
2022-08-28T06:53:29.987Z,15.56
2022-08-28T06:55:59.031Z,15.87
2022-08-28T06:58:26.132Z,16.04
2022-08-28T07:01:02.989Z,16.12
2022-08-28T07:03:29.813Z,16.14
2022-08-28T07:05:57.176Z,16.24
2022-08-28T07:08:25.488Z,16.27
2022-08-28T07:10:52.457Z,16.37
2022-08-28T07:13:19.186Z,16.50
2022-08-28T07:15:45.877Z,16.55
2022-08-28T07:18:12.661Z,16.42
2022-08-28T07:20:39.444Z,16.35
2022-08-28T07:23:06.073Z,16.63
2022-08-28T07:25:34.177Z,16.83
2022-08-28T07:28:00.891Z,17.14
2022-08-28T07:30:27.496Z,17.45
2022-08-28T07:32:54.087Z,17.61
2022-08-28T07:35:21.038Z,17.41
2022-08-28T07:37:47.667Z,17.47
2022-08-28T07:40:14.567Z,17.59
2022-08-28T07:42:42.570Z,17.51
2022-08-28T07:45:10.365Z,17.65
2022-08-28T07:47:36.951Z,17.79
2022-08-28T07:50:04.493Z,17.47
2022-08-28T07:52:31.083Z,17.41
2022-08-28T07:54:57.647Z,17.31
2022-08-28T07:57:24.364Z,17.49
2022-08-28T07:59:52.422Z,17.68
2022-08-28T08:02:19.060Z,17.55
2022-08-28T08:04:45.640Z,17.53
2022-08-28T08:07:12.224Z,17.51
2022-08-28T08:09:40.386Z,17.55
2022-08-28T08:12:10.406Z,17.51
2022-08-28T08:14:37.956Z,17.54
2022-08-28T08:17:07.306Z,17.56
2022-08-28T08:19:34.408Z,17.58
2022-08-28T08:22:01.113Z,17.65
2022-08-28T08:24:28.600Z,17.84
2022-08-28T08:27:00.067Z,18.09
2022-08-28T08:29:29.094Z,18.15
2022-08-28T08:32:00.416Z,18.21
2022-08-28T08:34:28.664Z,18.18
2022-08-28T08:36:55.357Z,17.67
2022-08-28T08:39:22.082Z,17.66
2022-08-28T08:41:51.555Z,17.88
2022-08-28T08:44:28.475Z,18.43
2022-08-28T08:47:13.263Z,18.64
2022-08-28T08:49:47.514Z,19.19
2022-08-28T08:52:42.908Z,19.86
2022-08-28T08:55:25.073Z,20.41
2022-08-28T08:57:56.818Z,20.46
2022-08-28T09:00:24.574Z,20.39
2022-08-28T09:02:58.840Z,20.77
2022-08-28T09:05:44.907Z,20.94
2022-08-28T09:08:18.792Z,20.90
2022-08-28T09:10:52.729Z,21.30
2022-08-28T09:13:25.945Z,21.65
2022-08-28T09:15:52.685Z,21.83
2022-08-28T09:18:25.855Z,22.03
2022-08-28T09:20:55.737Z,22.39
2022-08-28T09:23:23.510Z,22.26
2022-08-28T09:25:54.934Z,22.18
2022-08-28T09:28:26.073Z,22.35
2022-08-28T09:30:57.154Z,22.40
2022-08-28T09:33:33.562Z,22.55
2022-08-28T09:36:22.958Z,22.90
2022-08-28T09:39:04.806Z,23.33
2022-08-28T09:41:32.354Z,23.16
2022-08-28T09:43:58.989Z,23.83
2022-08-28T09:46:30.273Z,23.41
2022-08-28T09:49:09.157Z,23.81
2022-08-28T09:51:37.439Z,23.37
2022-08-28T09:54:11.650Z,23.61
2022-08-28T09:56:41.394Z,24.00
2022-08-28T09:59:10.116Z,24.55
2022-08-28T10:01:47.287Z,24.07
2022-08-28T10:04:27.978Z,24.43
2022-08-28T10:07:01.212Z,24.54
2022-08-28T10:09:32.386Z,23.70
2022-08-28T10:12:06.590Z,24.10
2022-08-28T10:14:46.001Z,24.10
2022-08-28T10:17:25.203Z,24.27
2022-08-28T10:20:02.214Z,24.89
2022-08-28T10:22:38.938Z,25.17
2022-08-28T10:25:18.641Z,25.01
2022-08-28T10:27:57.712Z,24.98
2022-08-28T10:30:25.267Z,24.76
2022-08-28T10:33:08.930Z,24.84
2022-08-28T10:35:44.052Z,24.19
2022-08-28T10:38:16.005Z,24.85
2022-08-28T10:40:53.789Z,25.18
2022-08-28T10:43:29.074Z,25.40
2022-08-28T10:46:00.991Z,25.18
2022-08-28T10:48:31.928Z,25.45
2022-08-28T10:51:02.762Z,25.63
2022-08-28T10:53:35.429Z,26.18
2022-08-28T10:56:06.564Z,25.98
2022-08-28T10:58:37.001Z,26.22
2022-08-28T11:01:08.358Z,25.75
2022-08-28T11:03:41.655Z,26.24
2022-08-28T11:06:17.744Z,26.65
2022-08-28T11:08:53.044Z,26.79
2022-08-28T11:11:42.221Z,27.24
2022-08-28T11:14:09.294Z,26.30
2022-08-28T11:16:40.363Z,26.65
2022-08-28T11:19:33.560Z,27.45
2022-08-28T11:22:07.791Z,27.33
2022-08-28T11:24:50.133Z,27.89
2022-08-28T11:27:23.646Z,27.77
2022-08-28T11:30:29.084Z,27.48
2022-08-28T11:33:02.367Z,27.65
2022-08-28T11:35:51.896Z,28.41
2022-08-28T11:38:54.858Z,28.54
2022-08-28T11:41:25.293Z,27.84
2022-08-28T11:44:18.471Z,28.11
2022-08-28T11:46:46.932Z,27.94
2022-08-28T11:49:39.333Z,28.15
2022-08-28T11:52:16.759Z,26.95
2022-08-28T11:54:51.332Z,27.35
2022-08-28T11:57:24.683Z,27.27
2022-08-28T12:00:07.084Z,27.40
2022-08-28T12:02:49.343Z,28.13
2022-08-28T12:05:49.188Z,28.96
2022-08-28T12:08:53.057Z,29.22
2022-08-28T12:11:51.231Z,28.93
2022-08-28T12:15:03.738Z,29.37
2022-08-28T12:17:49.680Z,29.36
2022-08-28T12:20:22.533Z,29.75
2022-08-28T12:22:52.090Z,29.65
2022-08-28T12:25:30.935Z,29.61
2022-08-28T12:28:03.101Z,30.30
2022-08-28T12:30:33.433Z,29.91
2022-08-28T12:33:11.537Z,29.96
2022-08-28T12:35:38.467Z,29.54
2022-08-28T12:38:06.833Z,28.76
2022-08-28T12:40:49.927Z,28.23
2022-08-28T12:43:32.119Z,29.13
2022-08-28T12:46:02.563Z,30.07
2022-08-28T12:48:33.214Z,29.91
2022-08-28T12:51:03.944Z,30.00
2022-08-28T12:53:39.355Z,30.40
2022-08-28T12:56:08.440Z,29.69
2022-08-28T12:58:37.601Z,29.70
2022-08-28T13:01:07.664Z,30.38
2022-08-28T13:03:42.470Z,30.42
2022-08-28T13:06:09.355Z,30.43
2022-08-28T13:08:37.534Z,31.08
2022-08-28T13:11:04.609Z,29.91
2022-08-28T13:13:37.015Z,29.81
2022-08-28T13:16:05.779Z,30.28
2022-08-28T13:18:46.408Z,30.19
2022-08-28T13:21:34.081Z,29.70
2022-08-28T13:24:26.847Z,29.84
2022-08-28T13:27:04.220Z,29.51
2022-08-28T13:29:31.150Z,28.27
2022-08-28T13:31:59.545Z,28.28
2022-08-28T13:34:29.274Z,28.16
2022-08-28T13:36:58.746Z,28.13
2022-08-28T13:39:27.595Z,29.06
2022-08-28T13:41:56.394Z,28.68
2022-08-28T13:44:33.631Z,28.80
2022-08-28T13:47:02.114Z,29.39
2022-08-28T13:49:30.145Z,29.54
2022-08-28T13:51:58.748Z,30.30
2022-08-28T13:54:25.504Z,29.70
2022-08-28T13:56:54.458Z,29.50
2022-08-28T13:59:21.300Z,28.55
2022-08-28T14:01:48.097Z,27.86
2022-08-28T14:04:15.011Z,27.48
2022-08-28T14:06:43.599Z,28.01
2022-08-28T14:09:10.357Z,27.80
2022-08-28T14:11:36.960Z,27.07
2022-08-28T14:14:03.638Z,27.37
2022-08-28T14:16:30.316Z,27.74
2022-08-28T14:18:56.945Z,27.88
2022-08-28T14:21:23.682Z,28.44
2022-08-28T14:23:51.807Z,28.27
2022-08-28T14:26:19.065Z,28.37
2022-08-28T14:28:45.661Z,29.10
2022-08-28T14:31:14.614Z,29.52
2022-08-28T14:33:41.799Z,29.02
2022-08-28T14:36:14.948Z,29.47
2022-08-28T14:38:41.510Z,30.16
2022-08-28T14:41:09.564Z,30.35
2022-08-28T14:43:36.266Z,29.64
2022-08-28T14:46:03.160Z,29.26
2022-08-28T14:48:29.776Z,29.34
2022-08-28T14:50:56.460Z,28.77
2022-08-28T14:53:23.062Z,28.90
2022-08-28T14:55:49.969Z,29.53
2022-08-28T14:58:19.222Z,28.56
2022-08-28T15:00:49.594Z,28.96
2022-08-28T15:03:16.898Z,28.40
2022-08-28T15:05:43.763Z,28.17
2022-08-28T15:08:13.230Z,29.03
2022-08-28T15:10:41.507Z,29.31
2022-08-28T15:13:09.763Z,29.59
2022-08-28T15:15:38.652Z,29.61
2022-08-28T15:18:06.059Z,29.18
2022-08-28T15:20:37.996Z,28.50
2022-08-28T15:23:04.713Z,28.90
2022-08-28T15:25:31.319Z,29.37
2022-08-28T15:27:57.917Z,29.56
2022-08-28T15:30:24.606Z,29.11
2022-08-28T15:32:52.579Z,28.98
2022-08-28T15:35:19.150Z,28.59
2022-08-28T15:37:45.750Z,28.13
2022-08-28T15:40:12.386Z,27.56
2022-08-28T15:42:39.001Z,28.16
2022-08-28T15:45:06.458Z,28.04
2022-08-28T15:47:33.024Z,27.49
2022-08-28T15:50:00.978Z,27.15
2022-08-28T15:52:27.591Z,26.75
2022-08-28T15:54:54.286Z,27.72
2022-08-28T15:57:21.031Z,28.27
2022-08-28T15:59:50.076Z,28.39
2022-08-28T16:02:18.417Z,28.66
2022-08-28T16:04:45.040Z,27.95
2022-08-28T16:07:13.137Z,27.65
2022-08-28T16:09:39.727Z,27.23
2022-08-28T16:12:06.626Z,26.57
2022-08-28T16:14:33.335Z,26.56
2022-08-28T16:16:59.978Z,26.73
2022-08-28T16:19:32.826Z,25.86
2022-08-28T16:21:59.525Z,26.06
2022-08-28T16:24:27.730Z,25.94
2022-08-28T16:26:54.305Z,26.20
2022-08-28T16:29:21.058Z,26.22
2022-08-28T16:31:48.647Z,26.34
2022-08-28T16:34:15.468Z,26.70
2022-08-28T16:36:46.231Z,26.85
2022-08-28T16:39:12.780Z,27.18
2022-08-28T16:41:40.744Z,26.75
2022-08-28T16:44:07.420Z,26.92
2022-08-28T16:46:34.224Z,26.97
2022-08-28T16:49:00.906Z,27.07
2022-08-28T16:51:27.493Z,26.71
2022-08-28T16:53:54.766Z,26.20
2022-08-28T16:56:22.458Z,26.30
2022-08-28T16:58:53.279Z,25.62
2022-08-28T17:01:20.785Z,25.38
2022-08-28T17:03:48.051Z,24.48
2022-08-28T17:06:18.233Z,24.44
2022-08-28T17:08:45.078Z,23.42
2022-08-28T17:11:12.155Z,23.28
2022-08-28T17:13:39.146Z,23.60
2022-08-28T17:16:07.761Z,23.94
2022-08-28T17:18:34.812Z,24.42
2022-08-28T17:21:01.520Z,24.86
2022-08-28T17:23:28.151Z,25.25
2022-08-28T17:25:54.756Z,25.11
2022-08-28T17:28:21.343Z,24.53
2022-08-28T17:30:48.047Z,23.86
2022-08-28T17:33:16.025Z,23.26
2022-08-28T17:35:42.585Z,23.07
2022-08-28T17:38:09.405Z,22.81
2022-08-28T17:40:36.009Z,22.58
2022-08-28T17:43:02.828Z,22.18
2022-08-28T17:45:29.678Z,22.18
2022-08-28T17:47:56.386Z,22.05
2022-08-28T17:50:24.347Z,21.74
2022-08-28T17:52:51.685Z,21.43
2022-08-28T17:55:18.908Z,21.12
2022-08-28T17:57:45.471Z,21.19
2022-08-28T18:00:15.742Z,21.12
2022-08-28T18:02:42.806Z,20.79
2022-08-28T18:05:12.213Z,20.61
2022-08-28T18:07:40.409Z,20.53
2022-08-28T18:10:08.402Z,20.45
2022-08-28T18:12:35.255Z,20.33
2022-08-28T18:15:01.884Z,20.22
2022-08-28T18:17:28.485Z,20.12
2022-08-28T18:19:55.069Z,19.95
2022-08-28T18:22:23.626Z,19.86
2022-08-28T18:24:53.837Z,19.74
2022-08-28T18:27:20.847Z,19.56
2022-08-28T18:29:47.660Z,19.40
2022-08-28T18:32:14.221Z,19.23
2022-08-28T18:34:41.005Z,19.12
2022-08-28T18:37:07.606Z,18.98
2022-08-28T18:39:34.190Z,18.92
2022-08-28T18:42:02.193Z,18.80
2022-08-28T18:44:28.827Z,18.74
2022-08-28T18:46:55.493Z,18.60
2022-08-28T18:49:22.267Z,18.59
2022-08-28T18:51:48.951Z,18.54
2022-08-28T18:54:21.082Z,18.37
2022-08-28T18:56:50.451Z,18.32
2022-08-28T18:59:18.666Z,18.24
2022-08-28T19:01:45.336Z,18.11
2022-08-28T19:04:12.109Z,17.92
2022-08-28T19:06:40.499Z,17.77
2022-08-28T19:09:07.215Z,17.62
2022-08-28T19:11:34.145Z,17.54
2022-08-28T19:14:03.658Z,17.52
2022-08-28T19:16:32.173Z,17.40
2022-08-28T19:18:58.959Z,17.30
2022-08-28T19:21:28.719Z,17.21
2022-08-28T19:23:56.375Z,17.04
2022-08-28T19:26:23.572Z,16.95
2022-08-28T19:28:50.257Z,16.80
2022-08-28T19:31:17.083Z,16.68
2022-08-28T19:33:45.145Z,16.52
2022-08-28T19:36:12.000Z,16.37
2022-08-28T19:38:38.773Z,16.26
2022-08-28T19:41:06.151Z,16.09
2022-08-28T19:43:43.086Z,16.02
2022-08-28T19:46:18.310Z,15.95
2022-08-28T19:48:48.699Z,15.84
2022-08-28T19:51:17.588Z,15.73
2022-08-28T19:53:51.274Z,15.64
2022-08-28T19:56:21.515Z,15.56
2022-08-28T19:58:48.201Z,15.44
2022-08-28T20:01:14.974Z,15.36
2022-08-28T20:03:41.726Z,15.27
2022-08-28T20:06:09.659Z,15.17
2022-08-28T20:08:36.265Z,15.12
2022-08-28T20:11:02.832Z,15.07
2022-08-28T20:13:29.642Z,15.02
2022-08-28T20:15:56.383Z,14.88
2022-08-28T20:18:23.261Z,14.77
2022-08-28T20:20:50.835Z,14.73
2022-08-28T20:23:18.823Z,14.64
2022-08-28T20:25:46.729Z,14.56
2022-08-28T20:28:13.806Z,14.40
2022-08-28T20:30:40.755Z,14.37
2022-08-28T20:33:07.423Z,14.39
2022-08-28T20:35:34.070Z,14.34
2022-08-28T20:38:00.670Z,14.27
2022-08-28T20:40:28.894Z,14.15
2022-08-28T20:42:55.700Z,14.08
2022-08-28T20:45:22.620Z,14.00
2022-08-28T20:47:49.248Z,13.95
2022-08-28T20:50:15.879Z,13.88
2022-08-28T20:52:42.477Z,13.78
2022-08-28T20:55:10.609Z,13.73
2022-08-28T20:57:39.224Z,13.67
2022-08-28T21:00:07.152Z,13.63
2022-08-28T21:02:33.804Z,13.55
2022-08-28T21:05:01.168Z,13.49
2022-08-28T21:07:28.159Z,13.36
2022-08-28T21:10:05.284Z,13.32
2022-08-28T21:12:34.931Z,13.25
2022-08-28T21:15:03.632Z,13.15
2022-08-28T21:17:30.895Z,13.12
2022-08-28T21:20:00.020Z,13.06
2022-08-28T21:22:26.678Z,13.03
2022-08-28T21:24:53.241Z,12.97
2022-08-28T21:27:19.908Z,12.95
2022-08-28T21:29:47.688Z,12.91
2022-08-28T21:32:15.743Z,12.85
2022-08-28T21:34:42.377Z,12.75
2022-08-28T21:37:08.973Z,12.69
2022-08-28T21:39:35.679Z,12.67
2022-08-28T21:42:02.360Z,12.62
2022-08-28T21:44:29.063Z,12.60
2022-08-28T21:46:55.664Z,12.60
2022-08-28T21:49:23.651Z,12.59
2022-08-28T21:51:50.827Z,12.57
2022-08-28T21:54:17.675Z,12.57
2022-08-28T21:56:44.254Z,12.48
2022-08-28T21:59:10.856Z,12.42
2022-08-28T22:01:37.563Z,12.38
2022-08-28T22:04:04.896Z,12.33
2022-08-28T22:06:33.287Z,12.30
2022-08-28T22:08:59.980Z,12.30
2022-08-28T22:11:26.583Z,12.24
2022-08-28T22:13:53.182Z,12.15
2022-08-28T22:16:19.965Z,12.03
2022-08-28T22:18:47.022Z,12.00
2022-08-28T22:21:15.359Z,11.91
2022-08-28T22:23:45.468Z,11.80
2022-08-28T22:26:15.082Z,11.78
2022-08-28T22:28:41.725Z,11.71
2022-08-28T22:31:08.542Z,11.66
2022-08-28T22:33:35.200Z,11.58
2022-08-28T22:36:02.550Z,11.48
2022-08-28T22:41:21.724Z,11.38
2022-08-28T22:43:51.817Z,11.31
2022-08-28T22:46:19.343Z,11.29
2022-08-28T22:48:46.045Z,11.26
2022-08-28T22:51:15.008Z,11.24
2022-08-28T22:53:42.863Z,11.17
2022-08-28T22:56:10.456Z,11.10
2022-08-28T22:58:39.256Z,11.09
2022-08-28T23:01:09.076Z,11.06
2022-08-28T23:03:36.404Z,10.96
2022-08-28T23:06:03.410Z,10.91
2022-08-28T23:08:33.909Z,10.89
2022-08-28T23:11:00.847Z,10.88
2022-08-28T23:13:28.094Z,10.79
2022-08-28T23:15:56.198Z,10.77
2022-08-28T23:18:23.005Z,10.74
2022-08-28T23:20:50.603Z,10.70
2022-08-28T23:23:18.330Z,10.65
2022-08-28T23:25:44.931Z,10.57
2022-08-28T23:28:11.666Z,10.51
2022-08-28T23:30:38.507Z,10.43
2022-08-28T23:33:08.442Z,10.42
2022-08-28T23:35:36.013Z,10.38
2022-08-28T23:38:03.641Z,10.34
2022-08-28T23:40:30.264Z,10.29
2022-08-28T23:42:57.073Z,10.26
2022-08-28T23:45:23.876Z,10.21
2022-08-28T23:47:50.920Z,10.15
2022-08-28T23:50:21.236Z,10.02
2022-08-28T23:52:47.917Z,10.01
2022-08-28T23:55:18.951Z,10.00
2022-08-28T23:57:45.968Z,9.97
